createdAt,value
2023-05-23T00:01:02.185Z,100676.69
2023-05-23T00:03:31.168Z,100678.69
2023-05-23T00:05:59.015Z,100667.22
2023-05-23T00:08:25.904Z,100671.16
2023-05-23T00:10:52.396Z,100664.44
2023-05-23T00:13:19.102Z,100661.66
2023-05-23T00:15:45.552Z,100662.03
2023-05-23T00:18:12.451Z,100660.03
2023-05-23T00:20:42.558Z,100651.72
2023-05-23T00:23:18.986Z,100656.81
2023-05-23T00:25:53.075Z,100659.19
2023-05-23T00:28:20.213Z,100653.63
2023-05-23T00:30:47.194Z,100652.00
2023-05-23T00:33:14.408Z,100639.34
2023-05-23T00:35:42.425Z,100642.88
2023-05-23T00:38:09.368Z,100644.81
2023-05-23T00:40:35.799Z,100648.72
2023-05-23T00:43:02.527Z,100648.66
2023-05-23T00:45:29.157Z,100644.69
2023-05-23T00:47:55.801Z,100641.91
2023-05-23T00:50:22.445Z,100637.13
2023-05-23T00:52:49.675Z,100632.31
2023-05-23T00:55:16.491Z,100627.56
2023-05-23T00:57:44.402Z,100620.81
2023-05-23T01:00:15.255Z,100623.16
2023-05-23T01:02:47.123Z,100618.38
2023-05-23T01:05:17.501Z,100626.22
2023-05-23T01:07:48.839Z,100618.75
2023-05-23T01:10:18.788Z,100619.53
2023-05-23T01:13:00.551Z,100610.84
2023-05-23T01:15:40.678Z,100604.94
2023-05-23T01:18:14.474Z,100608.97
2023-05-23T01:20:50.199Z,100615.31
2023-05-23T01:23:24.978Z,100613.78
2023-05-23T01:26:13.552Z,100612.59
2023-05-23T01:28:49.320Z,100613.44
2023-05-23T01:31:17.202Z,100612.25
2023-05-23T01:33:43.974Z,100613.16
2023-05-23T01:36:14.331Z,100611.59
2023-05-23T01:38:40.816Z,100613.22
2023-05-23T01:41:07.272Z,100611.66
2023-05-23T01:43:34.183Z,100612.81
2023-05-23T01:46:01.420Z,100617.63
2023-05-23T01:48:29.350Z,100610.94
2023-05-23T01:50:57.180Z,100605.03
2023-05-23T01:53:25.433Z,100609.81
2023-05-23T01:55:52.704Z,100605.47
2023-05-23T01:58:19.686Z,100611.00
2023-05-23T02:00:46.324Z,100609.06
2023-05-23T02:03:12.968Z,100610.63
2023-05-23T02:05:39.884Z,100614.22
2023-05-23T02:08:06.586Z,100615.00
2023-05-23T02:10:33.051Z,100608.66
2023-05-23T02:12:59.523Z,100620.53
2023-05-23T02:15:25.976Z,100615.41
2023-05-23T02:17:52.502Z,100615.75
2023-05-23T02:20:19.117Z,100618.16
2023-05-23T02:22:45.844Z,100618.56
2023-05-23T02:25:12.390Z,100611.84
2023-05-23T02:27:38.864Z,100624.50
2023-05-23T02:30:06.000Z,100622.50
2023-05-23T02:32:32.554Z,100621.28
2023-05-23T02:34:59.654Z,100613.38
2023-05-23T02:37:26.082Z,100617.72
2023-05-23T02:39:52.510Z,100610.63
2023-05-23T02:42:19.026Z,100611.41
2023-05-23T02:44:45.448Z,100611.41
2023-05-23T02:47:11.946Z,100616.53
2023-05-23T02:49:38.902Z,100616.16
2023-05-23T02:52:05.739Z,100610.59
2023-05-23T02:54:32.529Z,100609.41
2023-05-23T02:56:59.379Z,100611.41
2023-05-23T02:59:26.716Z,100611.38
2023-05-23T03:01:53.370Z,100598.75
2023-05-23T03:04:19.878Z,100604.28
2023-05-23T03:06:47.526Z,100606.25
2023-05-23T03:09:15.267Z,100606.25
2023-05-23T03:11:41.790Z,100600.34
2023-05-23T03:14:08.334Z,100594.00
2023-05-23T03:16:34.877Z,100597.16
2023-05-23T03:19:01.545Z,100592.03
2023-05-23T03:21:28.148Z,100583.31
2023-05-23T03:23:54.694Z,100588.84
2023-05-23T03:26:22.092Z,100585.28
2023-05-23T03:28:49.708Z,100589.66
2023-05-23T03:31:16.207Z,100585.28
2023-05-23T03:33:42.693Z,100581.72
2023-05-23T03:36:09.608Z,100584.53
2023-05-23T03:38:36.101Z,100581.72
2023-05-23T03:41:02.649Z,100584.91
2023-05-23T03:43:29.127Z,100582.53
2023-05-23T03:45:55.678Z,100585.72
2023-05-23T03:48:22.329Z,100583.34
2023-05-23T03:50:48.822Z,100583.72
2023-05-23T03:53:15.352Z,100596.38
2023-05-23T03:55:42.609Z,100597.97
2023-05-23T03:58:09.407Z,100593.25
2023-05-23T04:00:35.934Z,100593.63
2023-05-23T04:03:02.850Z,100587.28
2023-05-23T04:05:29.451Z,100609.44
2023-05-23T04:07:57.029Z,100604.69
2023-05-23T04:10:23.735Z,100599.19
2023-05-23T04:12:51.622Z,100606.31
2023-05-23T04:15:18.256Z,100607.47
2023-05-23T04:17:45.556Z,100606.28
2023-05-23T04:20:12.935Z,100610.25
2023-05-23T04:22:39.667Z,100612.63
2023-05-23T04:25:06.796Z,100600.75
2023-05-23T04:27:34.503Z,100601.16
2023-05-23T04:30:01.055Z,100602.34
2023-05-23T04:32:27.847Z,100597.59
2023-05-23T04:34:54.406Z,100599.19
2023-05-23T04:37:26.182Z,100595.59
2023-05-23T04:39:53.101Z,100597.19
2023-05-23T04:42:24.818Z,100590.09
2023-05-23T04:44:52.712Z,100594.44
2023-05-23T04:47:19.328Z,100586.91
2023-05-23T04:49:45.933Z,100592.84
2023-05-23T04:52:13.357Z,100588.50
2023-05-23T04:54:44.505Z,100584.56
2023-05-23T04:57:12.223Z,100587.72
2023-05-23T04:59:38.980Z,100593.63
2023-05-23T05:02:06.439Z,100590.06
2023-05-23T05:04:32.945Z,100587.28
2023-05-23T05:06:59.395Z,100580.19
2023-05-23T05:09:25.883Z,100579.41
2023-05-23T05:11:52.324Z,100569.91
2023-05-23T05:14:18.767Z,100574.66
2023-05-23T05:16:46.007Z,100573.44
2023-05-23T05:19:12.544Z,100581.75
2023-05-23T05:21:39.132Z,100569.88
2023-05-23T05:24:05.642Z,100568.72
2023-05-23T05:26:32.092Z,100569.88
2023-05-23T05:28:58.752Z,100565.94
2023-05-23T05:31:25.264Z,100577.75
2023-05-23T05:33:51.743Z,100581.69
2023-05-23T05:36:20.098Z,100591.59
2023-05-23T05:38:46.538Z,100593.56
2023-05-23T05:41:13.317Z,100592.75
2023-05-23T05:43:39.990Z,100587.19
2023-05-23T05:46:06.541Z,100583.22
2023-05-23T05:48:33.014Z,100591.53
2023-05-23T05:51:01.181Z,100598.22
2023-05-23T05:53:27.644Z,100598.59
2023-05-23T05:55:54.668Z,100596.22
2023-05-23T05:58:21.192Z,100601.28
2023-05-23T06:00:48.958Z,100601.59
2023-05-23T06:03:15.796Z,100603.53
2023-05-23T06:05:42.373Z,100591.69
2023-05-23T06:08:08.905Z,100605.09
2023-05-23T06:10:39.442Z,100600.66
2023-05-23T06:13:06.230Z,100598.69
2023-05-23T06:15:32.657Z,100605.75
2023-05-23T06:17:59.118Z,100605.72
2023-05-23T06:20:25.676Z,100604.13
2023-05-23T06:22:52.276Z,100611.25
2023-05-23T06:25:19.053Z,100615.56
2023-05-23T06:27:46.263Z,100621.09
2023-05-23T06:30:13.279Z,100627.81
2023-05-23T06:32:40.948Z,100634.97
2023-05-23T06:35:07.780Z,100626.22
2023-05-23T06:37:35.037Z,100629.38
2023-05-23T06:40:01.875Z,100623.41
2023-05-23T06:42:28.404Z,100630.94
2023-05-23T06:44:54.981Z,100630.81
2023-05-23T06:47:21.456Z,100626.81
2023-05-23T06:49:47.996Z,100627.63
2023-05-23T06:52:14.426Z,100626.47
2023-05-23T06:54:40.832Z,100637.44
2023-05-23T06:57:07.461Z,100640.56
2023-05-23T06:59:33.931Z,100633.78
2023-05-23T07:02:00.475Z,100638.91
2023-05-23T07:04:27.041Z,100623.50
2023-05-23T07:06:53.906Z,100627.84
2023-05-23T07:09:20.533Z,100628.97
2023-05-23T07:11:46.988Z,100619.03
2023-05-23T07:14:13.514Z,100613.94
2023-05-23T07:16:39.987Z,100622.53
2023-05-23T07:19:06.521Z,100606.75
2023-05-23T07:21:33.065Z,100618.53
2023-05-23T07:23:59.524Z,100601.63
2023-05-23T07:26:27.402Z,100605.91
2023-05-23T07:28:53.913Z,100605.13
2023-05-23T07:31:20.362Z,100602.78
2023-05-23T07:33:46.909Z,100602.78
2023-05-23T07:36:13.363Z,100603.22
2023-05-23T07:38:39.971Z,100600.94
2023-05-23T07:41:11.691Z,100611.19
2023-05-23T07:43:39.511Z,100611.06
2023-05-23T07:46:06.437Z,100616.78
2023-05-23T07:48:33.511Z,100621.16
2023-05-23T07:51:00.021Z,100639.22
2023-05-23T07:53:26.703Z,100633.56
2023-05-23T07:55:53.205Z,100628.94
2023-05-23T07:58:19.687Z,100640.63
2023-05-23T08:00:46.226Z,100643.88
2023-05-23T08:03:13.326Z,100656.41
2023-05-23T08:05:40.002Z,100657.13
2023-05-23T08:08:06.510Z,100655.50
2023-05-23T08:10:33.064Z,100664.63
2023-05-23T08:13:00.811Z,100661.84
2023-05-23T08:15:28.631Z,100656.63
2023-05-23T08:17:57.271Z,100664.66
2023-05-23T08:20:30.512Z,100652.13
2023-05-23T08:23:01.334Z,100663.03
2023-05-23T08:25:32.090Z,100659.13
2023-05-23T08:27:59.447Z,100659.31
2023-05-23T08:30:27.636Z,100660.63
2023-05-23T08:32:55.365Z,100653.50
2023-05-23T08:35:22.551Z,100654.47
2023-05-23T08:37:49.891Z,100665.44
2023-05-23T08:40:21.331Z,100666.41
2023-05-23T08:42:49.798Z,100663.00
2023-05-23T08:45:17.591Z,100676.94
2023-05-23T08:47:45.260Z,100671.72
2023-05-23T08:50:17.235Z,100676.69
2023-05-23T08:52:55.883Z,100655.63
2023-05-23T08:55:28.119Z,100678.97
2023-05-23T08:58:03.498Z,100677.59
2023-05-23T09:00:30.253Z,100644.34
2023-05-23T09:02:57.375Z,100660.63
2023-05-23T09:05:24.313Z,100672.03
2023-05-23T09:07:54.986Z,100664.50
2023-05-23T09:10:21.531Z,100673.44
2023-05-23T09:12:48.601Z,100680.56
2023-05-23T09:15:15.128Z,100681.03
2023-05-23T09:17:41.828Z,100684.16
2023-05-23T09:20:16.296Z,100689.19
2023-05-23T09:22:48.193Z,100688.78
2023-05-23T09:25:15.141Z,100683.63
2023-05-23T09:27:45.709Z,100681.41
2023-05-23T09:30:14.767Z,100679.53
2023-05-23T09:32:42.177Z,100679.53
2023-05-23T09:35:12.369Z,100670.44
2023-05-23T09:37:45.932Z,100679.03
2023-05-23T09:40:14.675Z,100680.97
2023-05-23T09:42:48.422Z,100679.03
2023-05-23T09:45:16.937Z,100680.53
2023-05-23T09:47:53.801Z,100682.03
2023-05-23T09:50:21.323Z,100680.00
2023-05-23T09:52:56.060Z,100681.59
2023-05-23T09:55:22.741Z,100684.19
2023-05-23T09:57:53.510Z,100682.31
2023-05-23T10:00:20.549Z,100683.53
2023-05-23T10:03:11.034Z,100685.00
2023-05-23T10:05:48.428Z,100681.38
2023-05-23T10:08:36.257Z,100679.69
2023-05-23T10:11:14.652Z,100684.78
2023-05-23T10:13:44.176Z,100681.97
2023-05-23T10:16:27.130Z,100686.66
2023-05-23T10:18:57.993Z,100690.06
2023-05-23T10:21:32.192Z,100691.63
2023-05-23T10:23:59.862Z,100692.78
2023-05-23T10:26:28.524Z,100689.69
2023-05-23T10:28:57.334Z,100697.97
2023-05-23T10:31:25.028Z,100692.84
2023-05-23T10:34:12.838Z,100696.38
2023-05-23T10:36:51.566Z,100686.09
2023-05-23T10:39:33.045Z,100690.41
2023-05-23T10:42:04.870Z,100693.19
2023-05-23T10:44:31.836Z,100694.31
2023-05-23T10:47:02.313Z,100695.50
2023-05-23T10:49:45.206Z,100689.22
2023-05-23T10:52:17.329Z,100698.50
2023-05-23T10:54:50.420Z,100692.59
2023-05-23T10:57:19.493Z,100691.94
2023-05-23T10:59:47.032Z,100694.16
2023-05-23T11:02:16.203Z,100702.81
2023-05-23T11:04:42.998Z,100696.47
2023-05-23T11:07:31.889Z,100693.72
2023-05-23T11:10:11.102Z,100692.41
2023-05-23T11:12:42.299Z,100685.25
2023-05-23T11:15:18.159Z,100692.72
2023-05-23T11:17:56.826Z,100696.88
2023-05-23T11:20:28.342Z,100697.81
2023-05-23T11:22:59.770Z,100703.69
2023-05-23T11:25:43.304Z,100709.94
2023-05-23T11:28:13.532Z,100712.53
2023-05-23T11:30:41.312Z,100703.53
2023-05-23T11:33:13.415Z,100703.56
2023-05-23T11:35:44.970Z,100695.06
2023-05-23T11:38:12.017Z,100712.75
2023-05-23T11:40:41.417Z,100708.06
2023-05-23T11:43:10.824Z,100707.31
2023-05-23T11:45:39.060Z,100704.13
2023-05-23T11:48:11.611Z,100709.59
2023-05-23T11:50:51.297Z,100716.03
2023-05-23T11:53:20.899Z,100712.06
2023-05-23T11:55:55.794Z,100714.41
2023-05-23T11:58:26.267Z,100716.50
2023-05-23T12:00:55.183Z,100722.13
2023-05-23T12:03:22.175Z,100724.56
2023-05-23T12:05:48.928Z,100725.47
2023-05-23T12:08:15.458Z,100736.63
2023-05-23T12:10:57.594Z,100729.16
2023-05-23T12:13:26.141Z,100734.78
2023-05-23T12:15:58.712Z,100739.56
2023-05-23T12:18:29.806Z,100736.84
2023-05-23T12:21:01.211Z,100741.69
2023-05-23T12:23:28.539Z,100737.72
2023-05-23T12:25:56.258Z,100733.00
2023-05-23T12:28:37.154Z,100745.34
2023-05-23T12:31:22.779Z,100729.88
2023-05-23T12:33:52.695Z,100735.47
2023-05-23T12:36:25.022Z,100737.47
2023-05-23T12:38:51.770Z,100737.91
2023-05-23T12:41:20.090Z,100737.06
2023-05-23T12:43:51.998Z,100737.06
2023-05-23T12:46:18.664Z,100737.91
2023-05-23T12:48:45.094Z,100740.34
2023-05-23T12:51:11.534Z,100736.31
2023-05-23T12:53:37.997Z,100730.03
2023-05-23T12:56:05.030Z,100740.22
2023-05-23T12:58:32.286Z,100737.88
2023-05-23T13:00:59.064Z,100751.31
2023-05-23T13:03:26.276Z,100735.22
2023-05-23T13:05:53.763Z,100739.09
2023-05-23T13:08:20.255Z,100750.19
2023-05-23T13:10:46.721Z,100749.06
2023-05-23T13:13:13.168Z,100747.84
2023-05-23T13:15:40.066Z,100752.19
2023-05-23T13:18:06.751Z,100760.09
2023-05-23T13:20:34.215Z,100757.31
2023-05-23T13:23:00.931Z,100767.22
2023-05-23T13:25:27.810Z,100757.59
2023-05-23T13:27:54.748Z,100773.41
2023-05-23T13:30:22.309Z,100765.16
2023-05-23T13:32:51.540Z,100773.06
2023-05-23T13:35:18.368Z,100780.63
2023-05-23T13:37:44.857Z,100775.13
2023-05-23T13:40:18.480Z,100783.47
2023-05-23T13:42:46.227Z,100787.03
2023-05-23T13:45:12.698Z,100789.41
2023-05-23T13:47:39.214Z,100785.88
2023-05-23T13:50:06.510Z,100794.97
2023-05-23T13:52:32.953Z,100792.19
2023-05-23T13:55:01.410Z,100809.69
2023-05-23T13:57:28.017Z,100811.25
2023-05-23T13:59:54.500Z,100799.78
2023-05-23T14:02:22.587Z,100802.56
2023-05-23T14:04:50.063Z,100812.47
2023-05-23T14:07:18.352Z,100815.66
2023-05-23T14:09:45.344Z,100819.22
2023-05-23T14:12:11.823Z,100814.06
2023-05-23T14:14:38.247Z,100819.56
2023-05-23T14:17:05.609Z,100828.28
2023-05-23T14:19:32.133Z,100824.34
2023-05-23T14:21:58.587Z,100824.34
2023-05-23T14:24:25.059Z,100828.69
2023-05-23T14:26:51.477Z,100836.97
2023-05-23T14:29:18.177Z,100829.47
2023-05-23T14:31:44.689Z,100830.63
2023-05-23T14:34:11.518Z,100834.19
2023-05-23T14:36:38.118Z,100836.53
2023-05-23T14:39:05.529Z,100830.97
2023-05-23T14:41:32.683Z,100839.69
2023-05-23T14:43:59.156Z,100843.25
2023-05-23T14:46:25.884Z,100838.47
2023-05-23T14:48:52.442Z,100844.34
2023-05-23T14:51:34.549Z,100841.94
2023-05-23T14:54:05.922Z,100847.50
2023-05-23T14:56:32.455Z,100849.84
2023-05-23T14:58:59.682Z,100857.78
2023-05-23T15:01:26.224Z,100858.94
2023-05-23T15:03:52.797Z,100851.69
2023-05-23T15:06:19.763Z,100864.38
2023-05-23T15:08:47.390Z,100857.22
2023-05-23T15:11:13.869Z,100865.13
2023-05-23T15:13:40.533Z,100867.47
2023-05-23T15:16:07.330Z,100870.69
2023-05-23T15:18:40.799Z,100869.06
2023-05-23T15:21:08.563Z,100874.59
2023-05-23T15:23:35.037Z,100881.34
2023-05-23T15:26:01.568Z,100878.91
2023-05-23T15:28:28.060Z,100883.66
2023-05-23T15:30:54.547Z,100890.81
2023-05-23T15:33:21.841Z,100886.69
2023-05-23T15:35:48.492Z,100887.88
2023-05-23T15:38:16.510Z,100898.94
2023-05-23T15:40:46.893Z,100898.84
2023-05-23T15:43:13.635Z,100904.38
2023-05-23T15:45:40.113Z,100905.50
2023-05-23T15:48:06.648Z,100909.22
2023-05-23T15:50:33.224Z,100915.22
2023-05-23T15:52:59.697Z,100921.63
2023-05-23T15:55:26.284Z,100914.09
2023-05-23T15:57:52.745Z,100917.25
2023-05-23T16:00:19.607Z,100921.56
2023-05-23T16:02:46.310Z,100922.81
2023-05-23T16:05:12.927Z,100928.69
2023-05-23T16:07:39.467Z,100929.44
2023-05-23T16:10:06.759Z,100936.69
2023-05-23T16:12:33.263Z,100942.22
2023-05-23T16:14:59.690Z,100938.53
2023-05-23T16:17:26.158Z,100952.47
2023-05-23T16:19:52.660Z,100950.41
2023-05-23T16:22:19.080Z,100947.69
2023-05-23T16:24:45.537Z,100956.56
2023-05-23T16:27:12.087Z,100956.13
2023-05-23T16:29:38.620Z,100953.94
2023-05-23T16:32:05.631Z,100969.91
2023-05-23T16:34:32.230Z,100961.56
2023-05-23T16:36:58.705Z,100956.69
2023-05-23T16:39:25.318Z,100965.75
2023-05-23T16:41:51.795Z,100976.44
2023-05-23T16:44:18.273Z,100978.53
2023-05-23T16:46:44.894Z,100974.72
2023-05-23T16:49:11.427Z,100975.53
2023-05-23T16:51:37.921Z,100974.50
2023-05-23T16:54:04.558Z,100979.50
2023-05-23T16:56:31.067Z,100979.88
2023-05-23T16:58:57.576Z,100977.34
2023-05-23T17:01:24.234Z,100991.75
2023-05-23T17:03:50.940Z,100979.63
2023-05-23T17:06:17.406Z,100986.41
2023-05-23T17:08:43.955Z,100992.31
2023-05-23T17:11:10.494Z,100990.78
2023-05-23T17:13:37.344Z,100997.56
2023-05-23T17:16:04.602Z,100993.56
2023-05-23T17:18:31.880Z,100994.31
2023-05-23T17:20:58.417Z,100991.94
2023-05-23T17:23:25.522Z,100991.56
2023-05-23T17:25:52.091Z,101000.53
2023-05-23T17:28:18.610Z,101002.16
2023-05-23T17:30:45.171Z,101004.13
2023-05-23T17:33:12.437Z,101015.13
2023-05-23T17:35:39.051Z,101009.28
2023-05-23T17:38:05.611Z,101008.03
2023-05-23T17:40:32.159Z,101017.13
2023-05-23T17:42:58.608Z,101021.47
2023-05-23T17:45:25.193Z,101022.66
2023-05-23T17:47:51.714Z,101016.59
2023-05-23T17:50:18.436Z,101015.47
2023-05-23T17:52:45.512Z,101019.84
2023-05-23T17:55:12.215Z,101026.88
2023-05-23T17:57:38.656Z,101021.06
2023-05-23T18:00:06.549Z,101022.66
2023-05-23T18:02:33.251Z,101020.59
2023-05-23T18:05:00.266Z,101025.34
2023-05-23T18:07:26.802Z,101031.69
2023-05-23T18:09:53.362Z,101029.91
2023-05-23T18:12:20.679Z,101034.28
2023-05-23T18:14:48.196Z,101029.47
2023-05-23T18:17:15.265Z,101031.09
2023-05-23T18:19:42.068Z,101027.56
2023-05-23T18:22:09.394Z,101035.03
2023-05-23T18:24:36.104Z,101036.66
2023-05-23T18:27:04.651Z,101033.47
2023-05-23T18:29:31.655Z,101034.66
2023-05-23T18:31:58.331Z,101040.47
2023-05-23T18:34:26.551Z,101044.91
2023-05-23T18:36:55.243Z,101036.84
2023-05-23T18:39:22.145Z,101038.06
2023-05-23T18:41:48.614Z,101045.59
2023-05-23T18:44:16.106Z,101037.53
2023-05-23T18:46:43.451Z,101050.38
2023-05-23T18:49:10.019Z,101056.34
2023-05-23T18:51:36.834Z,101054.78
2023-05-23T18:54:03.556Z,101057.09
2023-05-23T18:56:30.032Z,101057.38
2023-05-23T18:58:56.587Z,101068.53
2023-05-23T19:01:23.227Z,101061.81
2023-05-23T19:03:49.979Z,101065.06
2023-05-23T19:06:16.694Z,101066.63
2023-05-23T19:08:43.264Z,101076.59
2023-05-23T19:11:10.670Z,101075.03
2023-05-23T19:13:37.497Z,101074.16
2023-05-23T19:16:04.393Z,101081.72
2023-05-23T19:18:31.684Z,101087.97
2023-05-23T19:20:58.134Z,101094.22
2023-05-23T19:23:25.142Z,101087.03
2023-05-23T19:25:51.653Z,101101.09
2023-05-23T19:28:18.271Z,101100.47
2023-05-23T19:30:44.857Z,101098.09
2023-05-23T19:33:11.513Z,101105.81
2023-05-23T19:35:38.600Z,101103.22
2023-05-23T19:38:05.204Z,101108.91
2023-05-23T19:40:31.674Z,101116.41
2023-05-23T19:42:58.219Z,101127.91
2023-05-23T19:45:24.881Z,101119.84
2023-05-23T19:47:51.971Z,101118.50
2023-05-23T19:50:19.184Z,101131.94
2023-05-23T19:52:46.115Z,101141.16
2023-05-23T19:55:12.673Z,101136.41
2023-05-23T19:57:39.141Z,101149.50
2023-05-23T20:00:06.985Z,101150.03
2023-05-23T20:02:33.845Z,101150.72
2023-05-23T20:05:01.033Z,101153.56
2023-05-23T20:07:27.547Z,101157.00
2023-05-23T20:09:55.832Z,101165.44
2023-05-23T20:12:22.286Z,101165.44
2023-05-23T20:14:48.989Z,101159.53
2023-05-23T20:17:15.460Z,101167.09
2023-05-23T20:19:41.928Z,101170.25
2023-05-23T20:22:08.508Z,101177.72
2023-05-23T20:24:34.951Z,101185.56
2023-05-23T20:27:01.646Z,101182.78
2023-05-23T20:29:28.132Z,101183.91
2023-05-23T20:31:54.773Z,101196.44
2023-05-23T20:34:21.401Z,101200.84
2023-05-23T20:36:47.838Z,101198.91
2023-05-23T20:39:14.294Z,101192.63
2023-05-23T20:41:42.070Z,101195.31
2023-05-23T20:44:12.468Z,101188.84
2023-05-23T20:46:41.965Z,101188.34
2023-05-23T20:49:08.446Z,101185.34
2023-05-23T20:51:37.239Z,101193.19
2023-05-23T20:54:05.265Z,101195.09
2023-05-23T20:56:32.576Z,101199.06
2023-05-23T20:59:01.622Z,101199.72
2023-05-23T21:01:28.338Z,101190.91
2023-05-23T21:03:55.546Z,101206.63
2023-05-23T21:06:22.408Z,101195.00
2023-05-23T21:08:48.991Z,101206.75
2023-05-23T21:11:15.584Z,101209.84
2023-05-23T21:13:42.139Z,101211.03
2023-05-23T21:16:08.739Z,101215.94
2023-05-23T21:18:35.258Z,101216.78
2023-05-23T21:21:02.492Z,101217.75
2023-05-23T21:23:29.073Z,101217.28
2023-05-23T21:25:56.070Z,101222.41
2023-05-23T21:28:22.555Z,101227.56
2023-05-23T21:30:49.506Z,101217.47
2023-05-23T21:33:15.972Z,101225.75
2023-05-23T21:35:42.815Z,101221.69
2023-05-23T21:38:09.449Z,101225.66
2023-05-23T21:40:35.909Z,101229.50
2023-05-23T21:43:02.564Z,101219.63
2023-05-23T21:45:29.092Z,101231.69
2023-05-23T21:47:55.653Z,101226.28
2023-05-23T21:50:22.265Z,101227.34
2023-05-23T21:52:48.716Z,101225.50
2023-05-23T21:55:15.257Z,101209.47
2023-05-23T21:57:41.744Z,101229.25
2023-05-23T22:00:12.373Z,101230.38
2023-05-23T22:02:39.535Z,101220.31
2023-05-23T22:05:07.101Z,101236.88
2023-05-23T22:07:33.616Z,101244.78
2023-05-23T22:10:00.145Z,101240.00
2023-05-23T22:12:26.938Z,101246.28
2023-05-23T22:14:54.677Z,101233.91
2023-05-23T22:17:22.547Z,101242.16
2023-05-23T22:19:51.857Z,101236.66
2023-05-23T22:22:19.313Z,101240.13
2023-05-23T22:24:45.802Z,101243.84
2023-05-23T22:27:12.310Z,101250.97
2023-05-23T22:29:38.889Z,101250.69
2023-05-23T22:32:05.655Z,101254.75
2023-05-23T22:34:32.248Z,101257.50
2023-05-23T22:37:00.236Z,101253.81
2023-05-23T22:39:26.972Z,101251.31
2023-05-23T22:41:53.848Z,101253.31
2023-05-23T22:44:20.388Z,101248.06
2023-05-23T22:46:46.903Z,101256.56
2023-05-23T22:49:13.460Z,101256.19
2023-05-23T22:51:39.985Z,101256.13
2023-05-23T22:54:06.610Z,101263.22
2023-05-23T22:56:33.179Z,101256.44
2023-05-23T22:58:59.773Z,101246.91
2023-05-23T23:01:26.370Z,101263.44
2023-05-23T23:03:52.926Z,101262.91
2023-05-23T23:06:20.911Z,101266.88
2023-05-23T23:08:47.615Z,101263.53
2023-05-23T23:11:14.225Z,101262.56
2023-05-23T23:13:40.670Z,101263.53
2023-05-23T23:16:08.584Z,101259.66
2023-05-23T23:18:35.178Z,101260.19
2023-05-23T23:21:01.632Z,101264.78
2023-05-23T23:23:28.134Z,101253.44
2023-05-23T23:25:54.608Z,101249.38
2023-05-23T23:28:21.144Z,101249.28
2023-05-23T23:30:47.713Z,101259.53
2023-05-23T23:33:14.948Z,101255.47
2023-05-23T23:35:41.622Z,101263.47
2023-05-23T23:38:08.070Z,101262.16
2023-05-23T23:40:34.535Z,101260.25
2023-05-23T23:43:01.052Z,101261.88
2023-05-23T23:45:27.541Z,101265.94
2023-05-23T23:47:54.091Z,101264.09
2023-05-23T23:50:20.776Z,101261.72
2023-05-23T23:52:47.279Z,101257.78
2023-05-23T23:55:13.792Z,101255.00
2023-05-23T23:57:40.574Z,101257.50
